Terminal Aerodrome Forecast
Issued by NWS

Home | Current Version | Previous Version | Graphics & Text | Print | Product List | Glossary On
Versions: 1 2 3 4 5 6 7 8 9 10 11 12 13 14 15 16 17
573
FTUS43 KOAX 210530
TAFCDR
TAF
KCDR 210530Z 2106/2206 10005KT P6SM OVC016
     FM211600 16007KT P6SM BKN025
     FM220000 16008KT P6SM SCT025=

USA.gov is the U.S. government's official web portal to all federal, state and local government web resources and services.